Time;durP1;ratioP1;P1;durP2;ratioP2;P2;SDS_P1;SDS_P2;PMS_P1;PMS_P2;Temp;Humidity;BMP_temperature;BMP_pressure;BME280_temperature;BME280_humidity;BME280_pressure;Samples;Min_cycle;Max_cycle;Signal;HPM_P1;HPM_P2
2022/12/28 00:01:15;;;;;;;5.78;4.10;;;;;;;-143.04;100.00;61139.28;4955851;28;20066;-83
2022/12/28 00:03:42;;;;;;;6.13;3.50;;;;;;;-143.04;100.00;61139.28;4952267;28;20063;-84
2022/12/28 00:06:09;;;;;;;7.68;4.43;;;;;;;-143.04;100.00;61139.28;4958364;28;20039;-84
2022/12/28 00:08:35;;;;;;;6.88;4.40;;;;;;;-143.04;100.00;61139.28;4962661;28;20040;-83
2022/12/28 00:11:05;;;;;;;6.90;3.83;;;;;;;-143.04;100.00;61139.28;4952314;28;20039;-84
2022/12/28 00:13:33;;;;;;;6.65;4.43;;;;;;;-143.04;100.00;61139.28;4958314;28;20411;-83
2022/12/28 00:16:09;;;;;;;7.75;4.60;;;;;;;-143.04;100.00;61139.28;4950158;28;20128;-84
2022/12/28 00:18:36;;;;;;;7.65;3.72;;;;;;;-143.04;100.00;61139.28;4947941;28;20119;-84
2022/12/28 00:21:03;;;;;;;5.72;4.35;;;;;;;-143.04;100.00;61139.28;4960661;28;20121;-83
2022/12/28 00:23:30;;;;;;;7.18;4.18;;;;;;;-143.04;100.00;61139.28;4953442;28;20066;-83
2022/12/28 00:26:05;;;;;;;7.10;3.60;;;;;;;-143.04;100.00;61139.28;4948484;28;20043;-83
2022/12/28 00:28:31;;;;;;;6.30;4.03;;;;;;;-143.04;100.00;61139.28;4947462;28;20054;-84
2022/12/28 00:30:57;;;;;;;8.00;4.22;;;;;;;-143.04;100.00;61139.28;4958475;28;20042;-84
2022/12/28 00:33:22;;;;;;;9.15;4.20;;;;;;;-143.04;100.00;61139.28;4949866;28;20122;-84
2022/12/28 00:35:56;;;;;;;7.28;3.88;;;;;;;-143.04;100.00;61139.28;4970338;28;20410;-83
2022/12/28 00:38:21;;;;;;;5.60;3.97;;;;;;;-143.04;100.00;61139.28;4966200;28;20047;-83
2022/12/28 00:40:47;;;;;;;8.93;4.30;;;;;;;-143.04;100.00;61139.28;4968252;28;20031;-83
2022/12/28 00:43:12;;;;;;;8.93;5.03;;;;;;;-143.04;100.00;61139.28;4973093;28;20478;-83
2022/12/28 00:45:38;;;;;;;6.50;4.50;;;;;;;-143.04;100.00;61139.28;4965626;28;20061;-83
2022/12/28 00:48:04;;;;;;;6.68;4.03;;;;;;;-143.04;100.00;61139.28;4967300;28;20040;-83
2022/12/28 00:50:30;;;;;;;8.45;4.38;;;;;;;-143.04;100.00;61139.28;4970888;28;20042;-83
2022/12/28 00:52:55;;;;;;;9.20;4.57;;;;;;;-143.04;100.00;61139.28;4966618;28;20112;-84
2022/12/28 00:55:21;;;;;;;7.57;4.32;;;;;;;-143.04;100.00;61139.28;4970130;28;20050;-83
2022/12/28 00:57:46;;;;;;;8.48;4.72;;;;;;;-143.04;100.00;61139.28;4968066;28;20027;-83
2022/12/28 01:00:13;;;;;;;6.65;4.65;;;;;;;-143.04;100.00;61139.28;4970103;28;20069;-83
2022/12/28 01:02:38;;;;;;;6.68;4.25;;;;;;;-143.04;100.00;61139.28;4965685;28;20035;-83
2022/12/28 01:05:05;;;;;;;9.52;4.72;;;;;;;-143.04;100.00;61139.28;4970345;28;20042;-84
2022/12/28 01:07:31;;;;;;;9.52;5.13;;;;;;;-143.04;100.00;61139.28;4967265;28;20118;-83
2022/12/28 01:09:56;;;;;;;9.30;5.07;;;;;;;-143.04;100.00;61139.28;4968204;28;20110;-84
2022/12/28 01:12:22;;;;;;;8.90;4.90;;;;;;;-143.04;100.00;61139.28;4971844;28;20073;-83
2022/12/28 01:14:47;;;;;;;7.35;4.57;;;;;;;-143.04;100.00;61139.28;4961957;28;20035;-83
2022/12/28 01:17:13;;;;;;;6.50;4.47;;;;;;;-143.04;100.00;61139.28;4962829;28;20526;-83
2022/12/28 01:19:38;;;;;;;6.85;4.50;;;;;;;-143.04;100.00;61139.28;4962975;28;20039;-83
2022/12/28 01:22:04;;;;;;;8.38;4.40;;;;;;;-143.04;100.00;61139.28;4968261;28;20157;-83
2022/12/28 01:24:29;;;;;;;7.70;4.72;;;;;;;-143.04;100.00;61139.28;4965081;28;20043;-83
2022/12/28 01:26:55;;;;;;;7.85;4.40;;;;;;;-143.04;100.00;61139.28;4969628;28;20138;-83
2022/12/28 01:29:20;;;;;;;10.15;4.50;;;;;;;-143.04;100.00;61139.28;4968726;28;20118;-83
2022/12/28 01:31:45;;;;;;;6.32;4.43;;;;;;;-143.04;100.00;61139.28;4967244;28;20497;-83
2022/12/28 01:34:11;;;;;;;5.40;4.28;;;;;;;-143.04;100.00;61139.28;4965255;28;20051;-83
2022/12/28 01:36:37;;;;;;;6.28;4.47;;;;;;;-143.04;100.00;61139.28;4966013;28;20049;-83
2022/12/28 01:39:05;;;;;;;8.32;4.18;;;;;;;-143.04;100.00;61139.28;4965188;28;20097;-83
2022/12/28 01:41:36;;;;;;;9.57;4.88;;;;;;;-143.04;100.00;61139.28;4963465;28;20047;-84
2022/12/28 01:44:01;;;;;;;5.57;3.10;;;;;;;-143.04;100.00;61139.28;4963903;28;20043;-83
2022/12/28 01:46:48;;;;;;;8.20;4.63;;;;;;;-143.04;100.00;61139.28;4964142;28;20037;-83
2022/12/28 01:49:30;;;;;;;6.93;4.43;;;;;;;-143.04;100.00;61139.28;4966433;28;20728;-83
2022/12/28 01:52:11;;;;;;;9.43;4.85;;;;;;;-143.04;100.00;61139.28;4965801;28;20039;-83
2022/12/28 01:54:52;;;;;;;9.32;4.70;;;;;;;-143.04;100.00;61139.28;4968258;28;20034;-83
2022/12/28 01:57:22;;;;;;;;;;;;;;;-143.04;100.00;61139.28;4969010;28;20050;-83
2022/12/28 01:59:56;;;;;;;6.40;4.25;;;;;;;-143.04;100.00;61139.28;4968099;28;19914;-84
2022/12/28 02:02:22;;;;;;;7.78;4.70;;;;;;;-143.04;100.00;61139.28;4947232;28;20046;-83
2022/12/28 02:04:49;;;;;;;9.50;4.68;;;;;;;-143.04;100.00;61139.28;4963716;28;20038;-83
2022/12/28 02:07:37;;;;;;;10.25;4.55;;;;;;;-143.04;100.00;61139.28;4964608;28;20478;-83
2022/12/28 02:10:04;;;;;;;5.53;4.55;;;;;;;-143.04;100.00;61139.28;4948693;28;20096;-84
2022/12/28 02:12:31;;;;;;;9.15;5.05;;;;;;;-143.04;100.00;61139.28;4961421;28;20132;-84
2022/12/28 02:14:56;;;;;;;8.88;4.57;;;;;;;-143.04;100.00;61139.28;4962572;28;20041;-83
2022/12/28 02:17:22;;;;;;;7.35;4.55;;;;;;;-143.04;100.00;61139.28;4965622;28;20042;-84
2022/12/28 02:19:48;;;;;;;8.20;4.95;;;;;;;-143.04;100.00;61139.28;4967016;28;20508;-84
2022/12/28 02:22:38;;;;;;;9.27;5.10;;;;;;;-143.04;100.00;61139.28;4964615;28;20114;-83
2022/12/28 02:25:42;;;;;;;8.88;5.07;;;;;;;-143.04;100.00;61139.28;4960835;28;20486;-82
2022/12/28 02:28:57;;;;;;;7.18;4.85;;;;;;;-143.04;100.00;61139.28;4965672;28;20043;-82
2022/12/28 02:32:15;;;;;;;7.55;4.93;;;;;;;-143.04;100.00;61139.28;4962849;28;20494;-82
2022/12/28 02:35:22;;;;;;;9.55;4.72;;;;;;;-143.04;100.00;61139.28;4952301;28;20507;-82
2022/12/28 02:38:00;;;;;;;7.07;4.90;;;;;;;-143.04;100.00;61139.28;4963020;28;20124;-82
2022/12/28 02:40:33;;;;;;;7.60;5.25;;;;;;;-143.04;100.00;61139.28;4966059;28;20039;-82
2022/12/28 02:43:02;;;;;;;7.25;5.00;;;;;;;-143.04;100.00;61139.28;4962383;28;20379;-83
2022/12/28 02:52:22;;;;;;;8.85;5.95;;;;;;;-143.04;100.00;61139.28;4967484;28;20042;-82
2022/12/28 02:58:05;;;;;;;;;;;;;;;-143.04;100.00;61139.28;4967680;28;20027;-82
2022/12/28 03:00:51;;;;;;;13.50;6.28;;;;;;;-143.04;100.00;61139.28;4964943;28;19925;-82
2022/12/28 03:03:40;;;;;;;9.63;5.07;;;;;;;-143.04;100.00;61139.28;4982789;28;20031;-83
2022/12/28 03:09:49;;;;;;;11.13;6.20;;;;;;;-143.04;100.00;61139.28;4967550;28;20471;-82
2022/12/28 03:12:33;;;;;;;9.63;5.90;;;;;;;-143.04;100.00;61139.28;4961408;28;20262;-82
2022/12/28 03:15:12;;;;;;;9.80;6.07;;;;;;;-143.04;100.00;61139.28;4966622;28;20057;-82
2022/12/28 03:31:43;;;;;;;11.13;6.28;;;;;;;-143.04;100.00;61139.28;4964448;28;20130;-83
2022/12/28 03:34:10;;;;;;;15.30;7.07;;;;;;;-143.04;100.00;61139.28;4964495;28;20118;-83
2022/12/28 03:37:01;;;;;;;9.40;5.80;;;;;;;-143.04;100.00;61139.28;4966143;28;20043;-82
2022/12/28 03:39:43;;;;;;;9.85;7.05;;;;;;;-143.04;100.00;61139.28;4963033;28;20046;-83
2022/12/28 03:45:52;;;;;;;9.60;6.63;;;;;;;-143.04;100.00;61139.28;4962233;28;20033;-82
2022/12/28 03:48:18;;;;;;;11.77;6.82;;;;;;;-143.04;100.00;61139.28;4961351;28;20069;-83
2022/12/28 03:50:48;;;;;;;11.52;7.07;;;;;;;-143.04;100.00;61139.28;4969196;28;20058;-83
2022/12/28 03:53:16;;;;;;;10.73;7.40;;;;;;;-143.04;100.00;61139.28;4963810;28;20043;-83
2022/12/28 03:55:42;;;;;;;12.73;7.05;;;;;;;-143.04;100.00;61139.28;4965214;28;20118;-82
2022/12/28 03:58:08;;;;;;;12.63;7.45;;;;;;;-143.04;100.00;61139.28;4971329;28;20139;-82
2022/12/28 04:00:33;;;;;;;12.70;7.25;;;;;;;-143.04;100.00;61139.28;4950539;28;20046;-83
2022/12/28 04:02:59;;;;;;;11.70;7.68;;;;;;;-143.04;100.00;61139.28;4964406;28;20030;-82
2022/12/28 04:05:24;;;;;;;10.70;7.05;;;;;;;-143.04;100.00;61139.28;4970135;28;20042;-83
2022/12/28 04:07:50;;;;;;;14.20;8.32;;;;;;;-143.04;100.00;61139.28;4965399;28;20035;-83
2022/12/28 04:10:16;;;;;;;17.98;7.60;;;;;;;-143.04;100.00;61139.28;4969960;28;20035;-83
2022/12/28 04:12:41;;;;;;;11.93;8.15;;;;;;;-143.04;100.00;61139.28;4965394;28;20041;-83
2022/12/28 04:15:07;;;;;;;11.90;7.45;;;;;;;-143.04;100.00;61139.28;4967719;28;20602;-82
2022/12/28 04:17:33;;;;;;;13.48;7.40;;;;;;;-143.04;100.00;61139.28;4966554;28;20034;-83
2022/12/28 04:19:58;;;;;;;10.93;7.88;;;;;;;-143.04;100.00;61139.28;4953518;28;20046;-83
2022/12/28 04:22:24;;;;;;;12.93;8.07;;;;;;;-143.04;100.00;61139.28;4967042;28;20461;-83
2022/12/28 04:24:49;;;;;;;12.02;7.53;;;;;;;-143.04;100.00;61139.28;4969263;28;20078;-83
2022/12/28 04:27:15;;;;;;;14.50;8.32;;;;;;;-143.04;100.00;61139.28;4970995;28;20106;-83
2022/12/28 04:29:40;;;;;;;12.45;7.40;;;;;;;-143.04;100.00;61139.28;4982776;28;20062;-83
2022/12/28 04:32:06;;;;;;;12.07;8.30;;;;;;;-143.04;100.00;61139.28;4963447;28;20031;-83
2022/12/28 04:34:31;;;;;;;12.52;7.55;;;;;;;-143.04;100.00;61139.28;4965945;28;20057;-82
2022/12/28 04:36:57;;;;;;;14.85;8.38;;;;;;;-143.04;100.00;61139.28;4965499;28;20065;-82
2022/12/28 04:39:22;;;;;;;11.32;7.30;;;;;;;-143.04;100.00;61139.28;4962266;28;20043;-83
2022/12/28 04:41:48;;;;;;;8.80;6.68;;;;;;;-143.04;100.00;61139.28;4967817;28;20046;-83
2022/12/28 04:44:14;;;;;;;11.52;7.88;;;;;;;-143.04;100.00;61139.28;4961419;28;20487;-83
2022/12/28 04:46:39;;;;;;;13.57;8.32;;;;;;;-143.04;100.00;61139.28;4965288;28;20046;-82
2022/12/28 04:49:05;;;;;;;13.30;8.10;;;;;;;-143.04;100.00;61139.28;4970854;28;20038;-83
2022/12/28 04:51:30;;;;;;;12.65;8.52;;;;;;;-143.04;100.00;61139.28;4964863;28;20524;-83
2022/12/28 04:53:57;;;;;;;13.65;8.90;;;;;;;-143.04;100.00;61139.28;4968376;28;20061;-83
2022/12/28 04:56:25;;;;;;;12.57;7.75;;;;;;;-143.04;100.00;61139.28;4969531;28;20942;-83
2022/12/28 04:58:59;;;;;;;12.85;8.25;;;;;;;-143.04;100.00;61139.28;4968245;28;20040;-82
2022/12/28 05:01:25;;;;;;;12.60;8.23;;;;;;;-143.04;100.00;61139.28;4966084;28;20042;-82
2022/12/28 05:03:53;;;;;;;14.93;8.02;;;;;;;-143.04;100.00;61139.28;4967575;28;20034;-82
2022/12/28 05:06:22;;;;;;;13.23;8.65;;;;;;;-143.04;100.00;61139.28;4967340;28;20058;-82
2022/12/28 05:08:48;;;;;;;13.73;8.23;;;;;;;-143.04;100.00;61139.28;4971326;28;20046;-83
2022/12/28 05:11:22;;;;;;;15.23;9.00;;;;;;;-143.04;100.00;61139.28;4969617;28;20490;-82
2022/12/28 05:13:48;;;;;;;12.88;8.25;;;;;;;-143.04;100.00;61139.28;4964183;28;20062;-82
2022/12/28 05:16:17;;;;;;;12.40;8.27;;;;;;;-143.04;100.00;61139.28;4966620;28;20101;-83
2022/12/28 05:18:43;;;;;;;12.98;8.55;;;;;;;-143.04;100.00;61139.28;4949422;28;20038;-83
2022/12/28 05:21:13;;;;;;;11.73;7.65;;;;;;;-143.04;100.00;61139.28;4967944;28;20049;-82
2022/12/28 05:23:39;;;;;;;11.18;8.25;;;;;;;-143.04;100.00;61139.28;4963653;28;20039;-82
2022/12/28 05:26:08;;;;;;;12.65;7.95;;;;;;;-143.04;100.00;61139.28;4963565;28;20089;-82
2022/12/28 05:28:33;;;;;;;12.95;7.80;;;;;;;-143.04;100.00;61139.28;4965105;28;20043;-82
2022/12/28 05:31:03;;;;;;;13.00;7.97;;;;;;;-143.04;100.00;61139.28;4966164;28;20043;-82
2022/12/28 05:33:31;;;;;;;14.07;8.45;;;;;;;-143.04;100.00;61139.28;4970245;28;20050;-82
2022/12/28 05:36:12;;;;;;;11.45;7.60;;;;;;;-143.04;100.00;61139.28;4954603;28;20059;-82
2022/12/28 05:38:39;;;;;;;11.73;7.65;;;;;;;-143.04;100.00;61139.28;4953401;28;20069;-83
2022/12/28 05:41:12;;;;;;;12.20;7.75;;;;;;;-143.04;100.00;61139.28;4952871;28;20035;-82
2022/12/28 05:43:39;;;;;;;13.57;8.10;;;;;;;-143.04;100.00;61139.28;4954657;28;20039;-83
2022/12/28 05:46:14;;;;;;;10.55;7.05;;;;;;;-143.04;100.00;61139.28;4953481;28;20102;-83
2022/12/28 05:48:42;;;;;;;13.07;7.78;;;;;;;-143.04;100.00;61139.28;4958586;28;20106;-82
2022/12/28 05:51:12;;;;;;;11.63;7.63;;;;;;;-143.04;100.00;61139.28;4954456;28;20039;-83
2022/12/28 05:53:38;;;;;;;14.20;7.85;;;;;;;-143.04;100.00;61139.28;4952552;28;20043;-82
2022/12/28 05:56:09;;;;;;;13.52;8.35;;;;;;;-143.04;100.00;61139.28;4955584;28;20050;-83
2022/12/28 05:58:35;;;;;;;12.07;7.55;;;;;;;-143.04;100.00;61139.28;4950741;28;20525;-83
2022/12/28 06:01:15;;;;;;;12.48;7.63;;;;;;;-143.04;100.00;61139.28;4957989;28;20111;-82
2022/12/28 06:03:41;;;;;;;12.85;7.60;;;;;;;-143.04;100.00;61139.28;4952166;28;20484;-83
2022/12/28 06:06:10;;;;;;;11.40;7.20;;;;;;;-143.04;100.00;61139.28;4942483;28;20032;-82
2022/12/28 06:08:37;;;;;;;10.90;7.15;;;;;;;-143.04;100.00;61139.28;4947837;28;20032;-82
2022/12/28 06:11:07;;;;;;;11.82;7.88;;;;;;;-143.04;100.00;61139.28;4946037;28;20039;-83
2022/12/28 06:13:34;;;;;;;12.63;8.13;;;;;;;-143.04;100.00;61139.28;4948972;28;20443;-83
2022/12/28 06:16:15;;;;;;;12.88;9.30;;;;;;;-143.04;100.00;61139.28;4945507;28;20039;-82
2022/12/28 06:18:42;;;;;;;10.82;7.45;;;;;;;-143.04;100.00;61139.28;4945322;28;20469;-82
2022/12/28 06:21:13;;;;;;;9.75;7.18;;;;;;;-143.04;100.00;61139.28;4945961;28;20036;-83
2022/12/28 06:23:39;;;;;;;;;;;;;;;-143.04;100.00;61139.28;4959893;28;20038;-82
2022/12/28 06:26:07;;;;;;;10.55;6.43;;;;;;;-143.04;100.00;61139.28;4945668;28;19970;-83
2022/12/28 06:28:35;;;;;;;13.02;7.40;;;;;;;-143.04;100.00;61139.28;4953354;28;20061;-83
2022/12/28 06:31:05;;;;;;;10.50;6.93;;;;;;;-143.04;100.00;61139.28;4947967;28;20039;-83
2022/12/28 06:33:31;;;;;;;12.10;8.15;;;;;;;-143.04;100.00;61139.28;4953421;28;20039;-83
2022/12/28 06:35:57;;;;;;;12.40;7.32;;;;;;;-143.04;100.00;61139.28;4966816;28;20117;-83
2022/12/28 06:38:23;;;;;;;9.73;6.85;;;;;;;-143.04;100.00;61139.28;4969569;28;20506;-83
2022/12/28 06:40:48;;;;;;;15.77;8.15;;;;;;;-143.04;100.00;61139.28;4967930;28;20058;-83
2022/12/28 06:43:14;;;;;;;12.95;7.85;;;;;;;-143.04;100.00;61139.28;4969588;28;20035;-83
2022/12/28 06:45:39;;;;;;;13.85;7.63;;;;;;;-143.04;100.00;61139.28;4966904;28;20566;-83
2022/12/28 06:48:06;;;;;;;13.23;7.93;;;;;;;-143.04;100.00;61139.28;4965968;28;20065;-83
2022/12/28 06:50:31;;;;;;;12.32;7.75;;;;;;;-143.04;100.00;61139.28;4967818;28;20043;-83
2022/12/28 06:52:57;;;;;;;11.80;7.50;;;;;;;-143.04;100.00;61139.28;4971115;28;20023;-83
2022/12/28 06:55:23;;;;;;;11.35;7.82;;;;;;;-143.04;100.00;61139.28;4968617;28;20070;-83
2022/12/28 06:57:48;;;;;;;10.60;6.97;;;;;;;-143.04;100.00;61139.28;4968758;28;20026;-83
2022/12/28 07:02:32;;;;;;;13.20;6.82;;;;;;;3.15;91.41;98561.06;5031873;28;122080;-83
2022/12/28 07:04:57;;;;;;;11.85;7.32;;;;;;;3.16;91.38;98556.69;5006680;28;20030;-83
2022/12/28 07:07:23;;;;;;;12.90;7.05;;;;;;;3.21;91.38;98552.72;5011599;28;20379;-83
2022/12/28 07:09:48;;;;;;;12.65;7.45;;;;;;;3.20;91.20;98547.69;5022796;28;20471;-83
2022/12/28 07:12:13;;;;;;;12.30;7.45;;;;;;;3.14;91.55;98543.88;5017191;28;20041;-83
2022/12/28 07:14:39;;;;;;;11.27;6.88;;;;;;;3.11;91.71;98538.16;5019525;28;20105;-83
2022/12/28 07:17:04;;;;;;;9.68;6.53;;;;;;;3.09;91.62;98540.06;5021307;28;20034;-83
2022/12/28 07:19:30;;;;;;;11.82;7.78;;;;;;;3.06;91.88;98541.19;5021203;28;21056;-83
2022/12/28 07:21:55;;;;;;;15.70;7.28;;;;;;;3.08;91.87;98546.22;5017547;28;20454;-83
2022/12/28 07:24:21;;;;;;;10.10;6.60;;;;;;;3.07;91.83;98534.22;5019826;28;20214;-82
2022/12/28 07:26:47;;;;;;;10.98;7.25;;;;;;;3.14;91.55;98535.28;5022007;28;20038;-83
2022/12/28 07:29:13;;;;;;;11.65;7.13;;;;;;;3.15;91.37;98526.56;5021957;28;20034;-83
2022/12/28 07:31:39;;;;;;;12.65;7.18;;;;;;;3.20;91.31;98516.59;5018203;28;20068;-83
2022/12/28 07:34:05;;;;;;;12.20;7.22;;;;;;;3.25;91.25;98527.34;5018411;28;20088;-82
2022/12/28 07:36:32;;;;;;;12.85;7.03;;;;;;;3.23;91.37;98516.28;5016964;28;20479;-82
2022/12/28 07:38:58;;;;;;;11.13;6.68;;;;;;;3.22;91.87;98518.06;5018007;28;20049;-83
2022/12/28 07:41:31;;;;;;;10.45;6.82;;;;;;;3.32;91.94;98519.81;5022088;28;20901;-83
2022/12/28 07:43:58;;;;;;;10.23;6.60;;;;;;;3.33;91.68;98517.06;5018682;28;20555;-83
2022/12/28 07:46:30;;;;;;;10.30;6.60;;;;;;;3.37;91.58;98518.41;5016948;28;20038;-83
2022/12/28 07:48:57;;;;;;;11.82;7.50;;;;;;;3.45;91.41;98515.09;5020154;28;20053;-83
2022/12/28 07:51:29;;;;;;;12.18;7.05;;;;;;;3.60;90.90;98518.00;5021594;28;20045;-83
2022/12/28 07:53:56;;;;;;;11.23;7.78;;;;;;;3.62;90.64;98516.94;5020506;28;20045;-83
2022/12/28 07:56:24;;;;;;;13.27;8.75;;;;;;;3.75;90.20;98513.97;5019672;28;20072;-83
2022/12/28 07:58:56;;;;;;;13.23;8.10;;;;;;;3.84;89.83;98523.50;5023377;28;20508;-84
2022/12/28 08:01:26;;;;;;;12.98;7.68;;;;;;;3.94;89.49;98520.81;5015768;28;20486;-84
2022/12/28 08:03:55;;;;;;;12.25;7.80;;;;;;;3.94;89.50;98513.84;5018172;28;20034;-83
2022/12/28 08:06:22;;;;;;;12.45;7.97;;;;;;;3.94;89.12;98513.84;5015812;28;20622;-83
2022/12/28 08:08:54;;;;;;;11.18;7.50;;;;;;;3.97;89.14;98516.16;5015743;28;20038;-83
2022/12/28 08:11:23;;;;;;;14.57;7.90;;;;;;;4.00;89.16;98504.66;5016578;28;20666;-83
2022/12/28 08:13:53;;;;;;;14.40;8.98;;;;;;;4.02;88.90;98502.75;5008494;28;20493;-83
2022/12/28 08:16:22;;;;;;;13.27;8.32;;;;;;;4.01;89.01;98506.28;5005062;28;20045;-83
2022/12/28 08:18:48;;;;;;;13.70;8.48;;;;;;;4.07;88.81;98497.91;5005529;28;20038;-83
2022/12/28 08:21:24;;;;;;;13.55;7.63;;;;;;;4.10;88.53;98509.78;5005031;28;20042;-83
2022/12/28 08:23:51;;;;;;;14.07;8.35;;;;;;;4.10;88.99;98502.81;5005019;28;20054;-83
2022/12/28 08:26:26;;;;;;;15.55;8.02;;;;;;;4.17;88.57;98516.00;5005104;28;20038;-83
2022/12/28 08:28:57;;;;;;;16.13;7.97;;;;;;;4.20;88.39;98515.72;5005845;28;20034;-83
2022/12/28 08:31:30;;;;;;;12.65;8.00;;;;;;;4.23;88.27;98512.81;5004645;28;20033;-83
2022/12/28 08:33:58;;;;;;;13.88;7.28;;;;;;;4.19;87.85;98508.88;5008463;28;20069;-83
2022/12/28 08:36:24;;;;;;;15.55;9.23;;;;;;;4.29;87.85;98517.41;5003330;28;20041;-83
2022/12/28 08:38:50;;;;;;;15.70;7.68;;;;;;;4.29;87.91;98513.03;5017272;28;20393;-83
2022/12/28 08:41:22;;;;;;;14.30;8.45;;;;;;;4.36;87.52;98510.66;5008312;28;20025;-83
2022/12/28 08:43:50;;;;;;;14.25;8.25;;;;;;;4.36;87.66;98504.66;5005003;28;20029;-83
2022/12/28 08:46:19;;;;;;;13.68;8.35;;;;;;;4.48;87.55;98498.25;4999547;28;20498;-83
2022/12/28 08:48:48;;;;;;;14.20;8.10;;;;;;;4.45;87.66;98498.56;5008481;28;20037;-83
2022/12/28 08:51:22;;;;;;;13.38;8.15;;;;;;;4.55;87.47;98494.88;4998769;28;20080;-83
2022/12/28 08:53:48;;;;;;;12.60;8.10;;;;;;;4.56;87.41;98486.16;5005766;28;20064;-83
2022/12/28 08:56:18;;;;;;;12.48;7.72;;;;;;;4.59;87.41;98486.81;5006108;28;20129;-83
2022/12/28 08:58:45;;;;;;;12.48;7.70;;;;;;;4.68;87.10;98488.47;4998794;28;20071;-84
2022/12/28 09:01:18;;;;;;;14.45;8.10;;;;;;;4.74;87.07;98493.09;4997792;28;20394;-83
2022/12/28 09:03:47;;;;;;;15.98;7.72;;;;;;;4.82;87.19;98487.94;4997920;28;20038;-83
2022/12/28 09:06:19;;;;;;;10.85;7.47;;;;;;;4.92;86.66;98493.00;5000926;28;20613;-83
2022/12/28 09:08:49;;;;;;;13.45;7.72;;;;;;;4.93;86.59;98487.69;5003623;28;20121;-83
2022/12/28 09:11:15;;;;;;;12.13;7.70;;;;;;;4.98;86.83;98482.84;5005626;28;20041;-83
2022/12/28 09:13:41;;;;;;;13.13;8.35;;;;;;;4.99;86.42;98489.66;5005108;28;20536;-83
2022/12/28 09:16:13;;;;;;;12.20;8.18;;;;;;;5.06;86.17;98477.66;5003032;28;20034;-84
2022/12/28 09:18:41;;;;;;;12.02;7.68;;;;;;;5.09;85.63;98489.53;5005938;28;20107;-84
2022/12/28 09:21:16;;;;;;;11.70;7.53;;;;;;;5.17;85.22;98473.19;5004200;28;20040;-83
2022/12/28 09:23:45;;;;;;;12.20;7.43;;;;;;;5.29;85.10;98471.94;5001180;28;20064;-83
2022/12/28 09:26:14;;;;;;;11.82;7.45;;;;;;;5.31;84.75;98470.78;5003373;28;20157;-83
2022/12/28 09:28:49;;;;;;;13.88;8.00;;;;;;;5.28;84.40;98472.91;5001262;28;20117;-84
2022/12/28 09:31:17;;;;;;;11.85;7.35;;;;;;;5.33;84.61;98475.81;5007264;28;20029;-85
2022/12/28 09:34:01;;;;;;;12.20;7.57;;;;;;;5.47;84.65;98475.25;5006934;28;20052;-85
2022/12/28 09:36:41;;;;;;;12.25;7.68;;;;;;;5.46;84.46;98475.38;5005948;28;20045;-84
2022/12/28 09:39:15;;;;;;;11.82;8.10;;;;;;;5.56;84.38;98469.06;5003060;28;20057;-83
2022/12/28 09:41:55;;;;;;;14.43;8.13;;;;;;;5.64;84.04;98469.13;5001144;28;20037;-83
2022/12/28 09:44:56;;;;;;;10.15;6.88;;;;;;;5.77;83.51;98470.44;5004515;28;20049;-83
2022/12/28 09:47:27;;;;;;;13.20;7.80;;;;;;;5.89;83.08;98471.78;5005368;28;20030;-83
2022/12/28 09:49:56;;;;;;;14.13;8.27;;;;;;;5.96;82.84;98470.19;5004867;28;20034;-83
2022/12/28 09:52:35;;;;;;;11.30;7.50;;;;;;;5.99;82.54;98462.03;5006719;28;20136;-83
2022/12/28 09:55:12;;;;;;;12.75;6.60;;;;;;;5.96;82.08;98469.38;5005180;28;20038;-83
2022/12/28 09:57:46;;;;;;;9.88;6.85;;;;;;;5.99;82.57;98456.00;5004623;28;20493;-83
2022/12/28 10:00:20;;;;;;;11.00;7.50;;;;;;;6.02;82.51;98466.94;5003933;28;20046;-82
2022/12/28 10:03:15;;;;;;;12.27;6.70;;;;;;;6.11;82.20;98457.31;5007456;28;20377;-83
2022/12/28 10:05:40;;;;;;;10.45;6.25;;;;;;;6.17;81.76;98454.88;5004486;28;20593;-83
2022/12/28 10:08:13;;;;;;;12.32;7.03;;;;;;;6.29;81.77;98459.75;5001790;28;20065;-82
2022/12/28 10:10:41;;;;;;;11.70;7.18;;;;;;;6.32;81.62;98449.84;5006364;28;20026;-83
2022/12/28 10:13:23;;;;;;;9.15;6.43;;;;;;;6.42;80.82;98449.69;5006195;28;20030;-83
2022/12/28 10:15:50;;;;;;;10.27;6.88;;;;;;;6.45;80.91;98444.13;5004233;28;20037;-83
2022/12/28 10:18:25;;;;;;;8.82;6.30;;;;;;;6.48;80.59;98438.59;5005010;28;20029;-83
2022/12/28 10:20:51;;;;;;;11.15;6.63;;;;;;;6.44;80.77;98442.50;5002729;28;20698;-82
2022/12/28 10:23:25;;;;;;;9.13;6.75;;;;;;;6.54;81.25;98440.56;5004117;28;20548;-83
2022/12/28 10:25:55;;;;;;;10.20;6.90;;;;;;;6.47;80.91;98442.16;5000098;28;20112;-83
2022/12/28 10:28:28;;;;;;;11.07;6.80;;;;;;;6.58;80.86;98428.00;5008543;28;20434;-83
2022/12/28 10:31:08;;;;;;;12.88;8.15;;;;;;;6.60;80.72;98421.66;5003641;28;20080;-82
2022/12/28 10:33:39;;;;;;;10.57;7.28;;;;;;;6.67;81.04;98427.00;5003757;28;20064;-82
2022/12/28 10:36:11;;;;;;;9.60;6.53;;;;;;;6.72;80.29;98424.72;5002637;28;20048;-82
2022/12/28 10:38:42;;;;;;;13.90;7.38;;;;;;;6.82;79.85;98417.50;5005939;28;20444;-82
2022/12/28 10:41:15;;;;;;;15.45;7.68;;;;;;;6.88;80.11;98413.41;5006184;28;20040;-83
2022/12/28 10:43:45;;;;;;;11.80;6.85;;;;;;;6.93;79.84;98416.34;5013349;28;20061;-82
2022/12/28 10:46:18;;;;;;;11.75;6.95;;;;;;;6.97;79.96;98417.63;5003182;28;20041;-82
2022/12/28 10:48:55;;;;;;;9.23;6.28;;;;;;;7.07;79.35;98410.41;5008581;28;20038;-82
2022/12/28 10:51:25;;;;;;;9.40;6.20;;;;;;;7.10;78.83;98417.91;5001982;28;20045;-83
2022/12/28 10:53:54;;;;;;;9.32;6.45;;;;;;;7.22;78.96;98420.94;5009191;28;20034;-85
2022/12/28 10:56:21;;;;;;;11.30;6.88;;;;;;;7.24;78.62;98414.56;5002607;28;20049;-83
2022/12/28 10:58:50;;;;;;;13.85;7.82;;;;;;;7.19;78.23;98411.66;5002630;28;20041;-83
2022/12/28 11:01:24;;;;;;;17.10;9.45;;;;;;;7.25;78.43;98400.53;5004545;28;20046;-83
2022/12/28 11:03:55;;;;;;;11.20;7.70;;;;;;;7.31;78.50;98398.22;5005171;28;20023;-83
2022/12/28 11:06:49;;;;;;;8.30;5.95;;;;;;;7.26;78.16;98396.16;5003985;28;20045;-83
2022/12/28 11:09:24;;;;;;;11.27;6.50;;;;;;;7.35;78.09;98394.28;5002042;28;20030;-83
2022/12/28 11:11:54;;;;;;;9.52;6.22;;;;;;;7.45;78.35;98385.28;5005058;28;20041;-83
2022/12/28 11:14:33;;;;;;;11.30;6.07;;;;;;;7.60;77.96;98380.09;5003715;28;20485;-83
2022/12/28 11:17:18;;;;;;;9.18;6.32;;;;;;;7.52;77.48;98369.72;5001956;28;20611;-83
2022/12/28 11:19:45;;;;;;;9.95;5.88;;;;;;;7.52;77.45;98374.94;5001864;28;20034;-83
2022/12/28 11:22:15;;;;;;;10.93;6.47;;;;;;;7.57;77.52;98370.03;5014169;28;20038;-83
2022/12/28 11:24:41;;;;;;;11.05;5.90;;;;;;;7.64;77.10;98373.56;5003309;28;20038;-83
2022/12/28 11:27:15;;;;;;;8.05;5.57;;;;;;;7.64;76.90;98364.94;5001535;28;20064;-83
2022/12/28 11:29:46;;;;;;;9.15;5.55;;;;;;;7.86;77.04;98360.69;5004504;28;20532;-83
2022/12/28 11:32:22;;;;;;;8.15;5.57;;;;;;;7.96;76.21;98364.66;5008072;28;20042;-83
2022/12/28 11:34:49;;;;;;;7.63;4.97;;;;;;;8.01;75.15;98353.69;5003787;28;20042;-83
2022/12/28 11:37:15;;;;;;;8.02;4.95;;;;;;;8.11;74.61;98354.25;5006352;28;20029;-83
2022/12/28 11:39:47;;;;;;;6.95;4.75;;;;;;;8.27;75.11;98333.19;4999757;28;20045;-83
2022/12/28 11:42:38;;;;;;;7.95;4.72;;;;;;;8.47;74.34;98337.94;5001033;28;20506;-84
2022/12/28 11:45:12;;;;;;;5.38;4.03;;;;;;;8.61;73.78;98341.53;4993944;28;20488;-83
2022/12/28 11:47:39;;;;;;;5.85;3.88;;;;;;;8.80;71.88;98343.59;5004308;28;20069;-82
2022/12/28 11:50:32;;;;;;;5.30;3.72;;;;;;;8.63;70.87;98344.75;5018880;28;20072;-83
2022/12/28 11:53:00;;;;;;;9.27;5.13;;;;;;;8.61;72.65;98329.28;5007442;28;20516;-84
2022/12/28 11:55:55;;;;;;;17.17;9.45;;;;;;;8.74;71.95;98324.19;5005792;28;20037;-83
2022/12/28 11:58:29;;;;;;;4.93;3.70;;;;;;;8.94;72.11;98315.81;5003655;28;20034;-83
2022/12/28 12:00:58;;;;;;;7.93;5.50;;;;;;;9.20;71.31;98308.25;5007538;28;20050;-83
2022/12/28 12:03:55;;;;;;;7.25;4.78;;;;;;;9.47;69.74;98318.97;5001017;28;20037;-83
2022/12/28 12:06:42;;;;;;;4.78;3.80;;;;;;;9.65;68.97;98303.63;5006847;28;20030;-83
2022/12/28 12:09:20;;;;;;;4.05;3.20;;;;;;;9.70;68.11;98297.81;5006118;28;20125;-83